createdAt,value
2018-06-13T00:01:27.265Z,12.4
2018-06-13T00:11:26.636Z,11.1
2018-06-13T00:21:26.411Z,11.0
2018-06-13T00:31:26.065Z,11.1
2018-06-13T00:41:29.699Z,10.2
2018-06-13T00:51:25.814Z,9.0
2018-06-13T01:01:26.426Z,8.4
2018-06-13T01:11:25.917Z,9.4
2018-06-13T01:21:27.132Z,9.6
2018-06-13T01:31:25.767Z,9.9
2018-06-13T01:41:27.457Z,8.9
2018-06-13T01:51:26.537Z,9.2
2018-06-13T02:01:25.437Z,9.6
2018-06-13T02:11:27.226Z,9.1
2018-06-13T02:21:26.257Z,9.4
2018-06-13T02:31:27.063Z,9.2
2018-06-13T02:41:25.826Z,9.4
2018-06-13T02:51:28.081Z,9.5
2018-06-13T03:01:27.028Z,9.5
2018-06-13T03:11:27.964Z,10.0
2018-06-13T03:21:25.179Z,9.0
2018-06-13T03:31:26.918Z,10.4
2018-06-13T03:41:26.964Z,10.7
2018-06-13T03:51:25.820Z,10.1
2018-06-13T04:01:25.641Z,10.5
2018-06-13T04:11:25.918Z,9.7
2018-06-13T04:21:24.793Z,9.2
2018-06-13T04:31:26.685Z,9.6
2018-06-13T04:41:25.534Z,9.9
2018-06-13T04:51:25.687Z,9.4
2018-06-13T05:01:26.814Z,10.0
2018-06-13T05:11:26.993Z,10.9
2018-06-13T05:21:25.624Z,11.7
2018-06-13T05:31:26.291Z,11.9
2018-06-13T05:41:25.998Z,13.9
2018-06-13T05:51:26.003Z,12.9
2018-06-13T06:01:27.243Z,11.5
2018-06-13T06:11:28.475Z,15.2
2018-06-13T06:21:26.767Z,15.5
2018-06-13T06:31:25.850Z,10.9
2018-06-13T06:41:26.821Z,10.3
2018-06-13T07:51:31.972Z,7.9
2018-06-13T08:21:49.250Z,9.3
2018-06-13T08:31:31.131Z,9.6
2018-06-13T08:41:33.214Z,8.7
2018-06-13T08:51:31.852Z,9.7
2018-06-13T09:01:31.989Z,9.3
2018-06-13T09:11:31.234Z,8.9
2018-06-13T09:21:30.896Z,8.9
2018-06-13T09:31:31.739Z,7.9
2018-06-13T09:41:32.892Z,8.1
2018-06-13T09:51:26.720Z,8.5
2018-06-13T10:01:25.518Z,8.1
2018-06-13T10:11:26.513Z,7.3
2018-06-13T10:21:25.492Z,8.0
2018-06-13T10:31:31.119Z,8.3
2018-06-13T10:41:27.537Z,8.6
2018-06-13T10:51:25.612Z,8.2
2018-06-13T11:01:26.367Z,7.8
2018-06-13T11:11:25.480Z,8.9
2018-06-13T11:21:26.109Z,8.1
2018-06-13T11:31:26.698Z,8.6
2018-06-13T11:41:26.393Z,7.9
2018-06-13T11:51:33.189Z,7.6
2018-06-13T12:01:26.424Z,6.3
2018-06-13T12:11:26.651Z,6.8
2018-06-13T12:21:31.133Z,6.2
2018-06-13T12:31:30.373Z,7.9
2018-06-13T12:41:25.786Z,6.7
2018-06-13T12:51:37.166Z,6.9
2018-06-13T13:01:24.977Z,7.6
2018-06-13T13:11:26.060Z,6.6
2018-06-13T13:21:25.291Z,6.4
2018-06-13T13:31:30.877Z,6.3
2018-06-13T13:41:31.035Z,7.0
2018-06-13T13:51:32.560Z,6.0
2018-06-13T14:01:32.368Z,5.9
2018-06-13T14:11:25.420Z,5.8
2018-06-13T14:21:25.360Z,5.8
2018-06-13T14:31:25.423Z,6.0
2018-06-13T14:41:25.727Z,5.6
2018-06-13T14:51:26.132Z,5.8
2018-06-13T15:01:25.169Z,6.6
2018-06-13T15:11:25.300Z,6.4
2018-06-13T15:21:26.617Z,6.6
2018-06-13T15:31:25.458Z,6.8
2018-06-13T15:41:25.471Z,6.4
2018-06-13T15:51:25.855Z,6.5
2018-06-13T16:01:26.253Z,6.3
2018-06-13T16:11:24.947Z,6.4
2018-06-13T16:21:25.842Z,5.6
2018-06-13T16:31:26.663Z,6.3
2018-06-13T16:41:26.592Z,6.2
2018-06-13T16:51:26.427Z,6.1
2018-06-13T17:01:25.276Z,5.6
2018-06-13T17:11:25.643Z,5.4
2018-06-13T17:21:25.600Z,5.5
2018-06-13T17:31:28.520Z,6.9
2018-06-13T17:41:26.694Z,6.2
2018-06-13T17:51:26.146Z,6.3
2018-06-13T18:01:25.286Z,5.4
2018-06-13T18:11:26.597Z,5.5
2018-06-13T18:21:26.409Z,4.5
2018-06-13T18:31:27.119Z,5.1
2018-06-13T18:41:24.870Z,4.9
2018-06-13T18:51:28.376Z,7.7
2018-06-13T19:01:25.219Z,5.0
2018-06-13T19:11:27.423Z,5.4
2018-06-13T19:21:26.908Z,6.2
2018-06-13T19:31:25.745Z,6.9
2018-06-13T19:41:25.911Z,8.0
2018-06-13T19:51:26.226Z,7.0
2018-06-13T20:01:26.252Z,8.0
2018-06-13T20:11:25.557Z,6.6
2018-06-13T20:21:25.566Z,7.3
2018-06-13T20:31:27.664Z,8.2
2018-06-13T20:41:26.292Z,7.6
2018-06-13T20:51:51.376Z,7.8
2018-06-13T21:01:31.783Z,7.6
2018-06-13T21:11:47.265Z,7.3
2018-06-13T22:42:16.777Z,8.4
2018-06-13T23:01:33.110Z,8.3
2018-06-13T23:11:33.075Z,8.8
2018-06-13T23:21:31.511Z,8.9
2018-06-13T23:31:38.732Z,8.9
2018-06-13T23:41:32.336Z,8.7
